createdAt,value
2023-01-29T00:01:48.605Z,72.60
2023-01-29T00:04:15.521Z,72.63
2023-01-29T00:06:44.041Z,72.61
2023-01-29T00:09:11.108Z,73.01
2023-01-29T00:11:38.640Z,72.63
2023-01-29T00:14:06.211Z,72.95
2023-01-29T00:16:33.098Z,73.09
2023-01-29T00:19:01.359Z,72.60
2023-01-29T00:21:28.989Z,72.79
2023-01-29T00:23:57.250Z,72.95
2023-01-29T00:26:24.292Z,72.63
2023-01-29T00:28:51.337Z,72.73
2023-01-29T00:31:21.422Z,72.83
2023-01-29T00:33:48.411Z,73.18
2023-01-29T00:36:17.485Z,72.75
2023-01-29T00:38:44.553Z,73.04
2023-01-29T00:41:33.726Z,72.88
2023-01-29T00:44:20.526Z,73.07
2023-01-29T00:46:47.703Z,72.96
2023-01-29T00:49:14.412Z,72.98
2023-01-29T00:51:41.593Z,72.66
2023-01-29T00:54:08.375Z,73.09
2023-01-29T00:56:37.826Z,73.21
2023-01-29T00:59:04.683Z,73.11
2023-01-29T01:01:50.691Z,73.02
2023-01-29T01:04:17.466Z,73.17
2023-01-29T01:06:44.272Z,72.77
2023-01-29T01:09:29.948Z,73.03
2023-01-29T01:11:59.469Z,73.14
2023-01-29T01:14:26.924Z,73.13
2023-01-29T01:16:53.674Z,73.03
2023-01-29T01:19:20.472Z,73.34
2023-01-29T01:21:48.374Z,72.77
2023-01-29T01:24:15.460Z,72.91
2023-01-29T01:26:42.335Z,73.18
2023-01-29T01:29:10.422Z,72.95
2023-01-29T01:31:37.286Z,73.08
2023-01-29T01:34:04.047Z,73.37
2023-01-29T01:36:32.382Z,72.94
2023-01-29T01:38:59.208Z,73.02
2023-01-29T01:41:26.055Z,73.21
2023-01-29T01:43:55.689Z,73.36
2023-01-29T01:46:24.902Z,73.15
2023-01-29T01:48:58.538Z,73.27
2023-01-29T01:51:28.979Z,72.94
2023-01-29T01:53:58.969Z,73.22
2023-01-29T01:56:38.389Z,72.87
2023-01-29T01:59:09.762Z,72.91
2023-01-29T02:01:43.368Z,72.84
2023-01-29T02:04:33.536Z,73.20
2023-01-29T02:07:20.194Z,73.07
2023-01-29T02:09:52.946Z,73.21
2023-01-29T02:12:20.690Z,73.09
2023-01-29T02:14:48.044Z,73.18
2023-01-29T02:17:19.017Z,72.98
2023-01-29T02:19:52.800Z,73.13
2023-01-29T02:22:50.215Z,72.94
2023-01-29T02:25:33.720Z,73.36
2023-01-29T02:28:25.504Z,72.90
2023-01-29T02:31:00.656Z,73.07
2023-01-29T02:33:37.067Z,73.12
2023-01-29T02:36:19.695Z,73.25
2023-01-29T02:38:55.866Z,73.28
2023-01-29T02:41:28.386Z,73.11
2023-01-29T02:44:02.496Z,73.16
2023-01-29T02:46:35.206Z,72.89
2023-01-29T02:49:08.952Z,72.92
2023-01-29T02:51:41.889Z,72.78
2023-01-29T02:54:16.969Z,73.01
2023-01-29T02:56:52.212Z,73.22
2023-01-29T02:59:25.532Z,73.09
2023-01-29T03:01:56.643Z,72.96
2023-01-29T03:04:27.745Z,73.00
2023-01-29T03:07:01.562Z,72.85
2023-01-29T03:09:34.141Z,72.97
2023-01-29T03:12:20.030Z,73.35
2023-01-29T03:15:10.493Z,72.96
2023-01-29T03:17:39.254Z,73.30
2023-01-29T03:20:13.912Z,73.06
2023-01-29T03:22:46.431Z,73.12
2023-01-29T03:25:34.110Z,73.32
2023-01-29T03:28:22.732Z,73.19
2023-01-29T03:31:13.020Z,73.14
2023-01-29T03:33:46.215Z,73.34
2023-01-29T03:36:18.832Z,73.20
2023-01-29T03:38:45.943Z,73.24
2023-01-29T03:41:22.748Z,73.12
2023-01-29T03:44:00.129Z,73.16
2023-01-29T03:46:35.658Z,73.18
2023-01-29T03:49:08.809Z,73.45
2023-01-29T03:51:41.969Z,73.03
2023-01-29T03:54:18.757Z,73.43
2023-01-29T03:56:55.571Z,73.18
2023-01-29T03:59:36.657Z,73.12
2023-01-29T04:02:09.163Z,73.59
2023-01-29T04:04:38.137Z,73.49
2023-01-29T04:07:08.950Z,73.47
2023-01-29T04:09:40.451Z,73.06
2023-01-29T04:12:10.206Z,73.22
2023-01-29T04:14:40.445Z,73.49
2023-01-29T04:17:15.081Z,73.52
2023-01-29T04:19:43.944Z,73.55
2023-01-29T04:22:15.722Z,73.34
2023-01-29T04:24:43.121Z,73.38
2023-01-29T04:27:23.981Z,73.23
2023-01-29T04:30:03.672Z,73.63
2023-01-29T04:32:48.033Z,73.70
2023-01-29T04:35:26.547Z,73.26
2023-01-29T04:38:01.573Z,73.36
2023-01-29T04:40:37.713Z,73.18
2023-01-29T04:43:08.520Z,73.22
2023-01-29T04:45:46.294Z,73.65
2023-01-29T04:48:21.421Z,73.72
2023-01-29T04:50:58.068Z,73.40
2023-01-29T04:53:37.780Z,73.58
2023-01-29T04:56:16.150Z,73.29
2023-01-29T04:58:49.240Z,73.55
2023-01-29T05:01:22.408Z,73.71
2023-01-29T05:03:55.296Z,73.72
2023-01-29T05:06:24.817Z,73.20
2023-01-29T05:08:52.471Z,73.88
2023-01-29T05:11:20.477Z,73.50
2023-01-29T05:13:48.753Z,73.18
2023-01-29T05:16:20.310Z,73.80
2023-01-29T05:18:47.587Z,73.63
2023-01-29T05:21:15.904Z,73.77
2023-01-29T05:23:53.165Z,73.62
2023-01-29T05:26:39.755Z,73.71
2023-01-29T05:29:08.338Z,73.89
2023-01-29T05:31:35.147Z,73.43
2023-01-29T05:34:02.120Z,73.55
2023-01-29T05:36:30.727Z,73.57
2023-01-29T05:38:57.595Z,74.03
2023-01-29T05:41:24.342Z,73.92
2023-01-29T05:43:51.132Z,73.57
2023-01-29T05:46:18.901Z,73.82
2023-01-29T05:48:45.760Z,73.61
2023-01-29T05:51:12.544Z,73.60
2023-01-29T05:53:40.643Z,73.54
2023-01-29T05:56:08.668Z,74.05
2023-01-29T05:58:35.700Z,73.73
2023-01-29T06:01:09.556Z,73.92
2023-01-29T06:03:36.253Z,73.94
2023-01-29T06:06:03.241Z,74.09
2023-01-29T06:08:30.049Z,73.67
2023-01-29T06:10:58.501Z,73.49
2023-01-29T06:13:25.493Z,74.04
2023-01-29T06:15:52.331Z,73.93
2023-01-29T06:18:19.413Z,73.60
2023-01-29T06:20:46.189Z,74.11
2023-01-29T06:23:12.933Z,74.02
2023-01-29T06:25:39.935Z,73.68
2023-01-29T06:28:08.066Z,73.64
2023-01-29T06:30:35.134Z,74.02
2023-01-29T06:33:02.810Z,74.13
2023-01-29T06:35:29.631Z,74.15
2023-01-29T06:37:56.910Z,73.95
2023-01-29T06:40:24.852Z,73.79
2023-01-29T06:42:51.662Z,74.08
2023-01-29T06:45:20.007Z,73.67
2023-01-29T06:47:46.824Z,73.87
2023-01-29T06:50:13.653Z,74.10
2023-01-29T06:52:40.529Z,74.00
2023-01-29T06:55:08.177Z,73.97
2023-01-29T06:57:37.014Z,74.12
2023-01-29T07:00:04.376Z,73.89
2023-01-29T07:02:32.797Z,74.03
2023-01-29T07:04:59.613Z,73.73
2023-01-29T07:07:26.415Z,74.19
2023-01-29T07:09:53.145Z,74.03
2023-01-29T07:12:20.084Z,73.99
2023-01-29T07:14:47.254Z,74.21
2023-01-29T07:17:15.294Z,73.85
2023-01-29T07:19:43.512Z,73.80
2023-01-29T07:22:10.235Z,73.77
2023-01-29T07:24:37.074Z,73.90
2023-01-29T07:27:03.860Z,74.13
2023-01-29T07:29:30.723Z,74.19
2023-01-29T07:31:57.575Z,73.64
2023-01-29T07:34:24.397Z,74.06
2023-01-29T07:36:54.656Z,73.92
2023-01-29T07:39:21.388Z,74.00
2023-01-29T07:41:48.127Z,73.97
2023-01-29T07:44:14.917Z,73.76
2023-01-29T07:46:41.707Z,73.78
2023-01-29T07:49:08.558Z,73.72
2023-01-29T07:51:35.277Z,73.73
2023-01-29T07:54:03.558Z,74.03
2023-01-29T07:56:30.329Z,73.93
2023-01-29T07:58:57.036Z,74.03
2023-01-29T08:01:23.939Z,73.95
2023-01-29T08:03:51.499Z,73.79
2023-01-29T08:06:19.318Z,74.17
2023-01-29T08:08:46.079Z,74.12
2023-01-29T08:11:15.409Z,73.77
2023-01-29T08:13:42.153Z,74.05
2023-01-29T08:16:09.253Z,73.78
2023-01-29T08:18:37.176Z,73.84
2023-01-29T08:21:04.634Z,73.75
2023-01-29T08:23:31.463Z,73.89
2023-01-29T08:25:58.289Z,74.04
2023-01-29T08:28:26.677Z,73.77
2023-01-29T08:30:53.568Z,73.68
2023-01-29T08:33:33.362Z,73.94
2023-01-29T08:36:04.333Z,74.21
2023-01-29T08:38:31.027Z,73.84
2023-01-29T08:40:57.750Z,74.12
2023-01-29T08:43:25.976Z,73.91
2023-01-29T08:45:52.754Z,73.60
2023-01-29T08:48:19.548Z,73.72
2023-01-29T08:50:46.550Z,73.66
2023-01-29T08:53:14.996Z,73.95
2023-01-29T08:55:41.881Z,74.07
2023-01-29T08:58:10.912Z,74.06
2023-01-29T09:00:39.485Z,73.68
2023-01-29T09:03:07.914Z,73.85
2023-01-29T09:05:35.457Z,73.67
2023-01-29T09:08:02.186Z,73.86
2023-01-29T09:10:29.026Z,73.72
2023-01-29T09:12:55.794Z,73.80
2023-01-29T09:15:22.932Z,73.59
2023-01-29T09:17:51.501Z,73.32
2023-01-29T09:20:19.585Z,73.54
2023-01-29T09:22:47.037Z,73.33
2023-01-29T09:25:14.710Z,73.32
2023-01-29T09:27:41.799Z,73.27
2023-01-29T09:30:10.171Z,73.42
2023-01-29T09:32:52.729Z,73.43
2023-01-29T09:35:22.172Z,73.22
2023-01-29T09:37:49.097Z,73.20
2023-01-29T09:40:25.764Z,73.33
2023-01-29T09:42:57.913Z,73.51
2023-01-29T09:45:26.732Z,73.31
2023-01-29T09:47:56.275Z,72.79
2023-01-29T09:50:30.136Z,73.08
2023-01-29T09:53:02.880Z,73.09
2023-01-29T09:55:32.899Z,73.15
2023-01-29T09:58:04.005Z,72.90
2023-01-29T10:00:37.695Z,72.97
2023-01-29T10:03:37.893Z,73.14
2023-01-29T10:06:35.105Z,73.03
2023-01-29T10:09:37.669Z,72.99
2023-01-29T10:12:16.135Z,72.71
2023-01-29T10:14:53.054Z,73.02
2023-01-29T10:17:37.871Z,72.89
2023-01-29T10:20:32.759Z,72.77
2023-01-29T10:23:14.528Z,72.54
2023-01-29T10:25:43.041Z,72.81
2023-01-29T10:28:18.640Z,72.64
2023-01-29T10:30:48.896Z,72.55
2023-01-29T10:33:22.213Z,72.82
2023-01-29T10:35:55.340Z,72.66
2023-01-29T10:38:35.420Z,72.42
2023-01-29T10:41:18.260Z,72.85
2023-01-29T10:43:54.598Z,72.54
2023-01-29T10:46:32.754Z,72.14
2023-01-29T10:49:06.253Z,72.30
2023-01-29T10:51:48.860Z,72.50
2023-01-29T10:54:32.943Z,72.16
2023-01-29T10:57:12.641Z,72.23
2023-01-29T11:00:07.151Z,72.28
2023-01-29T11:02:34.039Z,72.11
2023-01-29T11:05:00.842Z,72.22
2023-01-29T11:07:28.075Z,72.20
2023-01-29T11:10:02.765Z,72.03
2023-01-29T11:12:31.359Z,71.76
2023-01-29T11:15:03.237Z,72.04
2023-01-29T11:17:30.003Z,72.07
2023-01-29T11:19:56.827Z,72.02
2023-01-29T11:22:25.473Z,71.58
2023-01-29T11:27:48.330Z,71.81
2023-01-29T11:30:23.726Z,71.53
2023-01-29T11:32:57.688Z,71.65
2023-01-29T11:35:25.740Z,71.69
2023-01-29T11:37:52.979Z,71.83
2023-01-29T11:40:40.624Z,71.69
2023-01-29T11:43:20.454Z,71.79
2023-01-29T11:45:49.454Z,71.62
2023-01-29T11:48:18.541Z,71.60
2023-01-29T11:50:52.388Z,71.64
2023-01-29T11:53:37.568Z,71.55
2023-01-29T11:56:16.660Z,71.53
2023-01-29T11:58:46.497Z,71.45
2023-01-29T12:01:16.771Z,71.63
2023-01-29T12:03:49.015Z,71.35
2023-01-29T12:06:20.543Z,71.43
2023-01-29T12:08:55.119Z,71.71
2023-01-29T12:11:27.346Z,71.42
2023-01-29T12:13:57.708Z,71.19
2023-01-29T12:16:29.292Z,71.64
2023-01-29T12:19:07.032Z,71.09
2023-01-29T12:21:42.437Z,71.59
2023-01-29T12:24:23.171Z,71.63
2023-01-29T12:26:59.113Z,71.17
2023-01-29T12:29:37.726Z,71.53
2023-01-29T12:32:15.267Z,71.40
2023-01-29T12:34:48.229Z,71.42
2023-01-29T12:37:22.083Z,71.53
2023-01-29T12:39:51.242Z,71.36
2023-01-29T12:42:20.616Z,71.71
2023-01-29T12:44:54.318Z,71.75
2023-01-29T12:47:25.492Z,71.40
2023-01-29T12:49:56.796Z,71.42
2023-01-29T12:52:37.975Z,71.27
2023-01-29T12:55:16.096Z,71.42
2023-01-29T12:57:46.025Z,71.45
2023-01-29T13:00:20.536Z,71.39
2023-01-29T13:02:55.017Z,71.45
2023-01-29T13:05:26.936Z,71.23
2023-01-29T13:07:57.025Z,71.34
2023-01-29T13:10:28.732Z,71.58
2023-01-29T13:13:02.355Z,71.34
2023-01-29T13:15:35.068Z,71.29
2023-01-29T13:18:19.045Z,71.44
2023-01-29T13:20:48.196Z,71.55
2023-01-29T13:23:21.013Z,71.32
2023-01-29T13:25:51.064Z,71.35
2023-01-29T13:28:19.988Z,71.39
2023-01-29T13:31:24.967Z,71.32
2023-01-29T13:33:55.423Z,71.70
2023-01-29T13:36:27.496Z,71.79
2023-01-29T13:38:56.402Z,71.51
2023-01-29T13:41:32.778Z,71.81
2023-01-29T13:43:59.643Z,71.61
2023-01-29T13:46:28.442Z,71.94
2023-01-29T13:48:58.320Z,71.66
2023-01-29T13:51:33.787Z,71.75
2023-01-29T13:54:05.546Z,71.84
2023-01-29T13:57:01.792Z,71.80
2023-01-29T13:59:53.245Z,71.99
2023-01-29T14:02:29.657Z,71.95
2023-01-29T14:05:38.369Z,71.91
2023-01-29T14:08:26.801Z,71.73
2023-01-29T14:11:33.713Z,72.18
2023-01-29T14:14:00.392Z,71.87
2023-01-29T14:16:35.433Z,71.96
2023-01-29T14:19:06.397Z,72.00
2023-01-29T14:21:35.197Z,72.06
2023-01-29T14:24:12.100Z,71.98
2023-01-29T14:26:45.510Z,72.25
2023-01-29T14:29:32.544Z,72.26
2023-01-29T14:32:13.657Z,72.02
2023-01-29T14:34:47.684Z,72.02
2023-01-29T14:37:22.588Z,72.10
2023-01-29T14:39:51.979Z,71.90
2023-01-29T14:42:23.737Z,71.93
2023-01-29T14:45:11.314Z,71.94
2023-01-29T14:48:36.799Z,71.90
2023-01-29T14:51:10.869Z,72.01
2023-01-29T14:53:49.163Z,71.93
2023-01-29T14:56:17.145Z,71.86
2023-01-29T14:58:48.107Z,71.99
2023-01-29T15:01:22.590Z,72.03
2023-01-29T15:03:52.441Z,72.07
2023-01-29T15:06:29.247Z,71.94
2023-01-29T15:09:04.852Z,72.21
2023-01-29T15:11:37.504Z,72.02
2023-01-29T15:14:30.452Z,72.22
2023-01-29T15:17:17.429Z,72.47
2023-01-29T15:19:45.936Z,72.35
2023-01-29T15:22:15.566Z,72.13
2023-01-29T15:24:43.822Z,72.30
2023-01-29T15:27:14.151Z,72.04
2023-01-29T15:29:43.359Z,72.42
2023-01-29T15:32:16.748Z,72.44
2023-01-29T15:34:44.464Z,72.19
2023-01-29T15:37:27.200Z,72.27
2023-01-29T15:39:54.300Z,72.34
2023-01-29T15:42:25.818Z,72.29
2023-01-29T15:44:56.521Z,72.24
2023-01-29T15:47:31.585Z,72.56
2023-01-29T15:49:58.683Z,72.18
2023-01-29T15:52:30.914Z,72.35
2023-01-29T15:55:03.584Z,72.11
2023-01-29T15:57:35.904Z,72.23
2023-01-29T16:00:04.833Z,72.47
2023-01-29T16:02:39.958Z,72.54
2023-01-29T16:05:12.136Z,72.50
2023-01-29T16:07:40.917Z,72.43
2023-01-29T16:10:14.586Z,72.63
2023-01-29T16:12:41.708Z,72.38
2023-01-29T16:15:20.322Z,72.38
2023-01-29T16:17:47.198Z,72.55
2023-01-29T16:20:31.099Z,72.34
2023-01-29T16:22:59.541Z,72.36
2023-01-29T16:25:30.708Z,72.22
2023-01-29T16:27:58.627Z,72.52
2023-01-29T16:30:27.596Z,72.24
2023-01-29T16:33:01.850Z,72.54
2023-01-29T16:35:28.876Z,72.88
2023-01-29T16:38:03.375Z,72.47
2023-01-29T16:40:33.190Z,72.44
2023-01-29T16:43:44.926Z,72.32
2023-01-29T16:46:19.915Z,72.36
2023-01-29T16:48:47.939Z,72.43
2023-01-29T16:51:22.430Z,72.71
2023-01-29T16:53:56.328Z,72.67
2023-01-29T16:56:26.177Z,72.42
2023-01-29T16:58:54.469Z,72.48
2023-01-29T17:01:24.642Z,72.93
2023-01-29T17:03:59.453Z,72.75
2023-01-29T17:06:27.595Z,73.17
2023-01-29T17:08:55.791Z,72.94
2023-01-29T17:11:33.514Z,73.03
2023-01-29T17:14:00.842Z,73.37
2023-01-29T17:16:30.309Z,73.33
2023-01-29T17:18:57.740Z,73.50
2023-01-29T17:21:25.054Z,73.43
2023-01-29T17:23:52.710Z,73.87
2023-01-29T17:26:23.224Z,73.94
2023-01-29T17:28:51.211Z,73.64
2023-01-29T17:31:18.325Z,73.94
2023-01-29T17:33:46.050Z,73.90
2023-01-29T17:36:16.053Z,73.91
2023-01-29T17:38:43.532Z,73.76
2023-01-29T17:41:16.747Z,74.21
2023-01-29T17:43:44.978Z,74.06
2023-01-29T17:46:15.115Z,74.18
2023-01-29T17:48:42.162Z,73.85
2023-01-29T17:51:12.529Z,74.26
2023-01-29T17:53:47.473Z,74.36
2023-01-29T17:56:17.056Z,74.14
2023-01-29T17:58:45.587Z,74.29
2023-01-29T18:01:12.253Z,74.34
2023-01-29T18:03:39.039Z,74.25
2023-01-29T18:06:08.239Z,74.23
2023-01-29T18:08:37.057Z,74.30
2023-01-29T18:11:04.265Z,74.07
2023-01-29T18:13:31.388Z,73.89
2023-01-29T18:15:59.691Z,73.93
2023-01-29T18:18:26.483Z,74.02
2023-01-29T18:20:53.534Z,73.97
2023-01-29T18:23:20.651Z,74.02
2023-01-29T18:25:47.397Z,73.77
2023-01-29T18:28:17.095Z,74.13
2023-01-29T18:30:47.053Z,73.97
2023-01-29T18:33:16.473Z,73.74
2023-01-29T18:35:43.924Z,73.81
2023-01-29T18:38:10.791Z,73.92
2023-01-29T18:40:37.566Z,73.95
2023-01-29T18:43:04.459Z,73.80
2023-01-29T18:45:31.607Z,73.76
2023-01-29T18:47:58.369Z,73.83
2023-01-29T18:50:26.545Z,73.68
2023-01-29T18:52:54.545Z,73.66
2023-01-29T18:55:22.092Z,73.78
2023-01-29T18:58:24.632Z,73.90
2023-01-29T19:00:39.421Z,73.88
2023-01-29T19:03:06.131Z,73.78
2023-01-29T19:05:34.854Z,73.57
2023-01-29T19:08:01.980Z,73.80
2023-01-29T19:10:28.805Z,73.82
2023-01-29T19:12:55.554Z,73.92
2023-01-29T19:15:22.826Z,73.87
2023-01-29T19:17:49.936Z,73.85
2023-01-29T19:20:17.062Z,74.06
2023-01-29T19:22:45.271Z,73.82
2023-01-29T19:25:12.726Z,73.99
2023-01-29T19:27:39.770Z,74.10
2023-01-29T19:30:07.866Z,74.06
2023-01-29T19:32:34.953Z,74.42
2023-01-29T19:35:01.803Z,73.95
2023-01-29T19:37:30.492Z,74.22
2023-01-29T19:39:58.760Z,74.11
2023-01-29T19:42:25.631Z,74.14
2023-01-29T19:44:53.494Z,74.27
2023-01-29T19:47:20.793Z,74.36
2023-01-29T19:49:47.589Z,74.56
2023-01-29T19:52:49.440Z,74.80
2023-01-29T19:55:20.349Z,74.55
2023-01-29T19:57:47.223Z,74.57
2023-01-29T20:00:17.316Z,74.52
2023-01-29T20:02:46.588Z,74.58
2023-01-29T20:05:17.233Z,74.81
2023-01-29T20:07:44.960Z,75.07
2023-01-29T20:10:17.310Z,75.20
2023-01-29T20:12:46.576Z,75.16
2023-01-29T20:15:13.750Z,75.39
2023-01-29T20:17:40.500Z,75.42
2023-01-29T20:20:08.631Z,75.64
2023-01-29T20:22:35.885Z,76.02
2023-01-29T20:25:02.822Z,75.69
2023-01-29T20:27:29.722Z,75.65
2023-01-29T20:29:57.802Z,75.70
2023-01-29T20:32:24.615Z,75.80
2023-01-29T20:34:52.246Z,75.90
2023-01-29T20:37:19.737Z,75.71
2023-01-29T20:39:47.174Z,75.71
2023-01-29T20:42:16.907Z,75.88
2023-01-29T20:44:43.679Z,75.90
2023-01-29T20:47:12.406Z,76.22
2023-01-29T20:49:39.114Z,76.31
2023-01-29T20:52:07.564Z,76.00
2023-01-29T20:54:34.504Z,76.02
2023-01-29T20:57:01.345Z,76.14
2023-01-29T20:59:29.279Z,76.43
2023-01-29T21:01:56.399Z,76.43
2023-01-29T21:04:24.921Z,76.31
2023-01-29T21:06:52.018Z,76.41
2023-01-29T21:09:18.699Z,76.52
2023-01-29T21:11:45.615Z,76.65
2023-01-29T21:14:12.618Z,76.82
2023-01-29T21:16:39.508Z,76.88
2023-01-29T21:19:06.306Z,76.83
2023-01-29T21:21:38.136Z,76.84
2023-01-29T21:24:05.443Z,76.71
2023-01-29T21:26:32.228Z,77.01
2023-01-29T21:29:01.841Z,77.02
2023-01-29T21:31:28.617Z,77.09
2023-01-29T21:33:55.317Z,77.07
2023-01-29T21:36:22.330Z,77.05
2023-01-29T21:38:50.388Z,77.08
2023-01-29T21:41:17.223Z,77.17
2023-01-29T21:43:44.901Z,77.46
2023-01-29T21:46:12.098Z,77.40
2023-01-29T21:48:39.764Z,77.47
2023-01-29T21:51:09.006Z,77.35
2023-01-29T21:53:40.636Z,77.55
2023-01-29T21:56:08.943Z,77.44
2023-01-29T21:58:35.772Z,77.54
2023-01-29T22:01:17.986Z,77.43
2023-01-29T22:03:49.230Z,77.66
2023-01-29T22:06:16.377Z,77.79
2023-01-29T22:08:43.259Z,77.92
2023-01-29T22:11:11.892Z,78.06
2023-01-29T22:13:38.780Z,78.31
2023-01-29T22:16:06.368Z,78.25
2023-01-29T22:18:33.545Z,77.89
2023-01-29T22:21:02.802Z,78.19
2023-01-29T22:23:30.123Z,78.37
2023-01-29T22:26:02.795Z,78.56
2023-01-29T22:28:30.933Z,78.57
2023-01-29T22:31:01.580Z,78.74
2023-01-29T22:33:28.450Z,78.63
2023-01-29T22:35:55.989Z,78.82
2023-01-29T22:38:23.146Z,78.88
2023-01-29T22:40:50.167Z,78.71
2023-01-29T22:43:16.948Z,78.71
2023-01-29T22:45:45.223Z,78.91
2023-01-29T22:48:15.147Z,78.74
2023-01-29T22:50:41.968Z,79.12
2023-01-29T22:53:09.256Z,78.99
2023-01-29T22:55:35.978Z,79.18
2023-01-29T22:58:03.380Z,79.75
2023-01-29T23:00:30.237Z,79.71
2023-01-29T23:02:59.712Z,79.77
2023-01-29T23:05:26.683Z,79.81
2023-01-29T23:07:53.548Z,80.03
2023-01-29T23:10:20.423Z,80.16
2023-01-29T23:12:47.143Z,80.02
2023-01-29T23:15:13.952Z,80.34
2023-01-29T23:17:40.710Z,80.13
2023-01-29T23:20:10.394Z,80.24
2023-01-29T23:22:37.172Z,80.29
2023-01-29T23:25:04.375Z,80.54
2023-01-29T23:27:31.050Z,80.54
2023-01-29T23:30:00.160Z,80.78
2023-01-29T23:32:26.875Z,80.88
2023-01-29T23:34:53.736Z,80.79
2023-01-29T23:37:21.812Z,80.59
2023-01-29T23:39:49.444Z,80.78
2023-01-29T23:42:16.435Z,81.08
2023-01-29T23:44:44.151Z,80.73
2023-01-29T23:47:11.331Z,80.84
2023-01-29T23:49:38.119Z,80.78
2023-01-29T23:52:05.321Z,80.95
2023-01-29T23:54:33.460Z,81.07
2023-01-29T23:57:01.998Z,80.84
2023-01-29T23:59:29.037Z,81.17
